Time;durP1;ratioP1;P1;durP2;ratioP2;P2;SDS_P1;SDS_P2;PMS_P1;PMS_P2;Temp;Humidity;BMP_temperature;BMP_pressure;BME280_temperature;BME280_humidity;BME280_pressure;Samples;Min_cycle;Max_cycle;Signal;HPM_P1;HPM_P2
2021/03/10 00:02:23;;;;;;;21.70;12.37;;;;;;;3.59;92.39;101907.31;5044857;28;20032;-77
2021/03/10 00:04:48;;;;;;;23.63;11.90;;;;;;;3.77;92.08;101910.19;5040279;28;20031;-77
2021/03/10 00:07:13;;;;;;;19.20;11.20;;;;;;;3.71;92.25;101916.63;5042047;28;20811;-76
2021/03/10 00:09:38;;;;;;;23.40;12.17;;;;;;;3.73;92.51;101906.56;5034953;28;20120;-77
2021/03/10 00:12:04;;;;;;;24.90;11.97;;;;;;;3.79;92.46;101908.63;5041408;28;20032;-76
2021/03/10 00:14:29;;;;;;;29.13;13.80;;;;;;;3.69;92.55;101909.69;5045516;28;20652;-76
2021/03/10 00:16:55;;;;;;;28.33;14.10;;;;;;;3.61;93.94;101905.75;5017871;28;20517;-76
2021/03/10 00:19:21;;;;;;;27.83;14.57;;;;;;;3.68;93.74;101901.19;5037226;28;20028;-76
2021/03/10 00:21:46;;;;;;;30.60;14.65;;;;;;;3.76;93.40;101896.59;5039632;28;20298;-77
2021/03/10 00:24:11;;;;;;;29.88;16.23;;;;;;;3.81;92.99;101899.47;5039130;28;20014;-77
2021/03/10 00:26:37;;;;;;;37.47;17.13;;;;;;;3.87;93.52;101900.75;5040068;28;20027;-76
2021/03/10 00:29:02;;;;;;;40.93;18.43;;;;;;;3.79;93.27;101896.81;5041703;28;20022;-76
2021/03/10 00:31:27;;;;;;;34.95;18.75;;;;;;;3.75;93.92;101894.84;5039956;28;20809;-77
2021/03/10 00:33:52;;;;;;;60.87;26.17;;;;;;;3.73;95.75;101891.31;5050587;28;20031;-77
2021/03/10 00:36:18;;;;;;;79.53;32.50;;;;;;;3.78;96.06;101886.53;5041704;28;20084;-76
2021/03/10 00:38:43;;;;;;;81.87;31.83;;;;;;;3.82;96.35;101881.78;5035590;28;20295;-75
2021/03/10 00:41:08;;;;;;;95.75;34.30;;;;;;;3.91;96.93;101887.50;5040889;28;20049;-76
2021/03/10 00:43:33;;;;;;;86.63;35.20;;;;;;;4.02;96.55;101891.63;5033536;28;20498;-77
2021/03/10 00:45:59;;;;;;;75.40;32.50;;;;;;;4.05;96.26;101891.81;5038883;28;20025;-76
2021/03/10 00:48:24;;;;;;;70.80;31.42;;;;;;;4.06;95.97;101890.16;5037515;28;20633;-76
2021/03/10 00:50:49;;;;;;;72.00;32.57;;;;;;;4.17;95.88;101881.56;5029823;28;20025;-76
2021/03/10 00:53:15;;;;;;;67.77;30.70;;;;;;;4.21;95.44;101892.81;5022709;28;20028;-76
2021/03/10 00:55:40;;;;;;;62.53;28.43;;;;;;;4.26;95.01;101897.47;5037904;28;20812;-76
2021/03/10 00:58:05;;;;;;;64.93;29.23;;;;;;;4.26;94.84;101891.50;5030161;28;20025;-76
2021/03/10 01:00:32;;;;;;;60.47;27.83;;;;;;;4.33;94.33;101891.97;5040174;28;20289;-76
2021/03/10 01:02:57;;;;;;;;;;;;;;;4.30;94.29;101896.88;5032275;28;20031;-77
2021/03/10 01:05:22;;;;;;;65.57;29.90;;;;;;;4.32;94.46;101892.75;5021079;28;19913;-77
2021/03/10 01:07:47;;;;;;;68.05;29.58;;;;;;;4.28;94.40;101889.94;5019763;28;20033;-76
2021/03/10 01:10:14;;;;;;;61.10;29.52;;;;;;;4.16;94.44;101892.53;5041020;28;20028;-78
2021/03/10 01:12:40;;;;;;;59.30;28.63;;;;;;;4.02;94.31;101896.72;5035057;28;20028;-77
2021/03/10 01:15:11;;;;;;;63.40;30.77;;;;;;;3.95;94.30;101902.16;5044273;28;20039;-77
2021/03/10 01:17:37;;;;;;;67.33;31.00;;;;;;;3.87;94.40;101898.19;5038660;28;20536;-77
2021/03/10 01:20:08;;;;;;;68.57;32.75;;;;;;;3.82;94.35;101898.69;5036230;28;20147;-76
2021/03/10 01:22:34;;;;;;;65.83;33.83;;;;;;;3.75;94.52;101897.38;5030715;28;20098;-77
2021/03/10 01:24:59;;;;;;;72.88;33.20;;;;;;;3.73;94.54;101894.75;5039670;28;20033;-77
2021/03/10 01:27:24;;;;;;;69.67;31.30;;;;;;;3.71;94.85;101898.84;5020335;28;20025;-76
2021/03/10 01:29:49;;;;;;;66.97;31.73;;;;;;;3.69;94.82;101894.44;5014987;28;20030;-77
2021/03/10 01:32:15;;;;;;;69.20;33.50;;;;;;;3.67;94.75;101889.25;5034291;28;20040;-76
2021/03/10 01:34:40;;;;;;;70.25;33.63;;;;;;;3.69;94.89;101887.69;5020125;28;20026;-77
2021/03/10 01:37:05;;;;;;;65.77;32.17;;;;;;;3.67;94.82;101881.63;5043365;28;20028;-77
2021/03/10 01:39:30;;;;;;;73.97;34.47;;;;;;;3.68;95.23;101891.00;5038613;28;20029;-77
2021/03/10 01:41:59;;;;;;;70.80;33.60;;;;;;;3.67;95.07;101896.88;5036601;28;20474;-77
2021/03/10 01:44:24;;;;;;;76.47;34.07;;;;;;;3.67;94.81;101896.88;5037554;28;20390;-77
2021/03/10 01:46:49;;;;;;;64.23;32.33;;;;;;;3.68;94.95;101893.56;5040673;28;20043;-77
2021/03/10 01:49:15;;;;;;;69.75;33.38;;;;;;;3.72;95.25;101880.28;5036866;28;20274;-76
2021/03/10 01:51:40;;;;;;;70.25;34.05;;;;;;;3.78;95.15;101879.81;5030447;28;20025;-77
2021/03/10 01:54:06;;;;;;;70.05;33.53;;;;;;;3.79;95.03;101873.06;5038629;28;20443;-76
2021/03/10 01:56:31;;;;;;;65.35;31.73;;;;;;;3.73;94.68;101869.34;5047403;28;20418;-76
2021/03/10 01:58:57;;;;;;;69.47;32.93;;;;;;;3.74;94.62;101862.59;5047384;28;20033;-76
2021/03/10 02:01:22;;;;;;;75.70;35.00;;;;;;;3.85;94.70;101863.28;5048275;28;20082;-76
2021/03/10 02:03:48;;;;;;;70.38;32.47;;;;;;;3.78;94.47;101856.94;5048617;28;20554;-76
2021/03/10 02:06:30;;;;;;;75.53;35.58;;;;;;;3.75;94.47;101856.72;5046181;28;20027;-76
2021/03/10 02:09:05;;;;;;;72.27;32.53;;;;;;;3.71;94.43;101848.03;5045105;28;20033;-76
2021/03/10 02:11:42;;;;;;;67.90;32.47;;;;;;;3.66;94.33;101854.47;5033395;28;20490;-76
2021/03/10 02:14:18;;;;;;;63.28;33.00;;;;;;;3.64;94.69;101850.94;5037794;28;20034;-76
2021/03/10 02:16:53;;;;;;;69.95;32.88;;;;;;;3.63;94.66;101844.09;5029098;28;20025;-76
2021/03/10 02:19:37;;;;;;;79.50;33.50;;;;;;;3.61;94.67;101844.78;5013940;28;20130;-75
2021/03/10 02:22:06;;;;;;;68.07;32.63;;;;;;;3.70;94.69;101846.25;5030840;28;20025;-76
2021/03/10 02:25:05;;;;;;;66.03;31.90;;;;;;;3.61;94.73;101839.69;5036952;28;20029;-76
2021/03/10 02:27:46;;;;;;;69.17;31.13;;;;;;;3.53;94.88;101844.22;5028980;28;20040;-76
2021/03/10 02:30:19;;;;;;;62.67;31.37;;;;;;;3.51;94.57;101848.31;5048549;28;20028;-75
2021/03/10 02:32:52;;;;;;;72.80;33.27;;;;;;;3.49;94.91;101842.25;5030973;28;20033;-76
2021/03/10 02:35:19;;;;;;;69.03;29.17;;;;;;;3.48;94.89;101840.50;5047371;28;20122;-75
2021/03/10 02:37:46;;;;;;;65.60;31.57;;;;;;;3.46;94.84;101836.09;5048707;28;20040;-75
2021/03/10 02:40:13;;;;;;;64.63;28.87;;;;;;;3.52;94.76;101829.75;5014004;28;20029;-76
2021/03/10 02:42:39;;;;;;;62.73;28.70;;;;;;;3.49;94.34;101826.13;5028609;28;20029;-76
2021/03/10 02:45:06;;;;;;;59.77;28.97;;;;;;;3.38;94.24;101823.75;5039891;28;20163;-75
2021/03/10 02:47:32;;;;;;;63.87;28.80;;;;;;;3.38;94.31;101820.34;5049811;28;20025;-75
2021/03/10 02:49:58;;;;;;;58.90;28.75;;;;;;;3.36;94.57;101826.97;5032436;28;20509;-75
2021/03/10 02:52:24;;;;;;;;;;;;;;;3.37;94.34;101823.66;5032434;28;20021;-76
2021/03/10 02:54:54;;;;;;;60.50;27.37;;;;;;;3.37;94.59;101818.56;5032290;28;19967;-75
2021/03/10 02:57:20;;;;;;;61.70;27.93;;;;;;;3.41;94.44;101815.47;5032296;28;20095;-75
2021/03/10 02:59:46;;;;;;;66.68;30.55;;;;;;;3.42;94.53;101812.16;5014098;28;20445;-76
2021/03/10 03:02:13;;;;;;;70.60;30.00;;;;;;;3.42;94.61;101805.41;5032000;28;20021;-76
2021/03/10 03:04:38;;;;;;;67.93;31.40;;;;;;;3.43;94.81;101801.22;5032539;28;20025;-75
2021/03/10 03:07:04;;;;;;;65.23;31.43;;;;;;;3.42;94.67;101789.28;5033730;28;20095;-76
2021/03/10 03:09:29;;;;;;;71.37;33.07;;;;;;;3.42;94.74;101782.56;5034709;28;20268;-76
2021/03/10 03:11:56;;;;;;;75.13;33.92;;;;;;;3.44;94.86;101788.63;5049526;28;20792;-76
2021/03/10 03:14:22;;;;;;;73.83;34.00;;;;;;;3.43;94.80;101789.38;5036606;28;20466;-76
2021/03/10 03:16:47;;;;;;;;;;;;;;;3.38;94.97;101784.78;5032360;28;20029;-76
2021/03/10 03:19:13;;;;;;;73.00;33.60;;;;;;;3.55;94.90;101779.16;5041108;28;20020;-75
2021/03/10 03:21:39;;;;;;;76.07;34.10;;;;;;;3.51;94.54;101774.66;5049965;28;20094;-76
2021/03/10 03:24:06;;;;;;;77.47;34.70;;;;;;;3.50;95.00;101775.44;5013757;28;20021;-75
2021/03/10 03:26:32;;;;;;;83.60;37.70;;;;;;;3.48;95.05;101776.13;5030488;28;20029;-76
2021/03/10 03:28:58;;;;;;;86.97;36.85;;;;;;;3.50;94.95;101767.81;5033256;28;20111;-76
2021/03/10 03:31:24;;;;;;;86.28;37.50;;;;;;;3.55;95.28;101774.06;5051088;28;20051;-75
2021/03/10 03:33:50;;;;;;;86.90;38.57;;;;;;;3.49;95.10;101773.69;5050955;28;20067;-76
2021/03/10 03:36:16;;;;;;;82.22;36.33;;;;;;;3.50;95.32;101774.56;5051567;28;20040;-77
2021/03/10 03:38:42;;;;;;;90.00;40.58;;;;;;;3.50;95.57;101772.00;5051363;28;20029;-76
2021/03/10 03:41:07;;;;;;;85.05;39.70;;;;;;;3.51;95.40;101772.13;5051251;28;20127;-76
2021/03/10 03:43:33;;;;;;;83.82;38.70;;;;;;;3.44;95.46;101777.56;5048862;28;20370;-76
2021/03/10 03:45:59;;;;;;;94.47;40.03;;;;;;;3.53;95.72;101778.19;5040107;28;20110;-76
2021/03/10 03:48:25;;;;;;;87.57;39.22;;;;;;;3.48;95.86;101787.16;5039709;28;20032;-77
2021/03/10 03:50:50;;;;;;;96.72;41.42;;;;;;;3.48;95.66;101787.16;5016169;28;20051;-76
2021/03/10 03:53:15;;;;;;;88.38;41.08;;;;;;;3.48;95.85;101782.06;5013573;28;20021;-77
2021/03/10 03:55:41;;;;;;;95.63;40.83;;;;;;;3.42;95.73;101771.50;5032708;28;20022;-76
2021/03/10 03:58:06;;;;;;;89.57;42.40;;;;;;;3.41;95.97;101772.28;5013634;28;20028;-75
2021/03/10 04:00:32;;;;;;;95.00;41.92;;;;;;;3.44;95.77;101772.50;5046028;28;20545;-76
2021/03/10 04:02:58;;;;;;;88.22;40.72;;;;;;;3.52;96.20;101784.03;5036134;28;20028;-75
2021/03/10 04:05:24;;;;;;;90.38;42.53;;;;;;;3.48;96.06;101777.00;5039385;28;20029;-76
2021/03/10 04:07:51;;;;;;;86.65;40.95;;;;;;;3.42;95.72;101781.66;5041091;28;20071;-76
2021/03/10 04:10:19;;;;;;;95.27;42.23;;;;;;;3.33;95.57;101781.94;5046352;28;20025;-76
2021/03/10 04:12:44;;;;;;;86.17;41.33;;;;;;;3.34;95.67;101772.66;5040015;28;20479;-77
2021/03/10 04:15:13;;;;;;;92.55;44.28;;;;;;;3.42;95.60;101774.06;5037700;28;20039;-76
2021/03/10 04:17:39;;;;;;;85.77;41.90;;;;;;;3.41;95.78;101764.66;5050769;28;20032;-76
2021/03/10 04:20:14;;;;;;;87.70;41.85;;;;;;;3.37;96.03;101763.59;5041316;28;20025;-76
2021/03/10 04:22:40;;;;;;;77.47;39.23;;;;;;;3.33;95.93;101765.81;5047086;28;20028;-76
2021/03/10 04:25:06;;;;;;;86.07;42.03;;;;;;;3.34;95.88;101765.03;5030613;28;20113;-77
2021/03/10 04:27:32;;;;;;;84.70;43.40;;;;;;;3.43;95.86;101750.41;5033404;28;20577;-77
2021/03/10 04:29:57;;;;;;;82.82;41.20;;;;;;;3.42;96.09;101756.28;5012760;28;20116;-76
2021/03/10 04:32:22;;;;;;;91.33;43.47;;;;;;;3.40;95.98;101752.75;5012406;28;20075;-76
2021/03/10 04:34:48;;;;;;;85.67;41.83;;;;;;;3.46;96.26;101754.81;5035384;22;20317;-78
2021/03/10 04:37:13;;;;;;;81.63;41.10;;;;;;;3.44;96.10;101752.16;5014058;28;20026;-80
2021/03/10 04:39:38;;;;;;;87.15;40.58;;;;;;;3.39;95.92;101745.91;4997791;28;20022;-80
2021/03/10 04:42:04;;;;;;;85.63;41.80;;;;;;;3.46;95.92;101735.38;4996598;28;20025;-77
2021/03/10 04:44:29;;;;;;;91.75;44.90;;;;;;;3.52;95.83;101743.41;5009735;28;20037;-78
2021/03/10 04:46:55;;;;;;;84.77;42.97;;;;;;;3.44;95.95;101742.00;4987268;28;20422;-77
2021/03/10 04:49:20;;;;;;;88.07;40.33;;;;;;;3.44;95.33;101745.44;5002796;28;20273;-79
2021/03/10 04:51:45;;;;;;;84.30;41.97;;;;;;;3.44;95.41;101742.00;4983333;28;20021;-78
2021/03/10 04:54:11;;;;;;;80.18;40.90;;;;;;;3.46;95.20;101753.16;5006586;28;20547;-77
2021/03/10 04:56:36;;;;;;;77.90;40.92;;;;;;;3.50;95.15;101752.56;5003739;28;20501;-77
2021/03/10 04:59:02;;;;;;;76.80;40.20;;;;;;;3.49;95.12;101748.28;4989244;28;20044;-79
2021/03/10 05:01:27;;;;;;;72.50;39.03;;;;;;;3.49;94.87;101735.56;5002334;28;20194;-78
2021/03/10 05:03:52;;;;;;;86.30;42.13;;;;;;;3.52;94.81;101738.31;4988108;28;20102;-78
2021/03/10 05:06:18;;;;;;;78.30;38.93;;;;;;;3.48;94.63;101731.28;4984369;28;20282;-78
2021/03/10 05:08:43;;;;;;;78.45;39.72;;;;;;;3.47;94.53;101734.59;4985124;28;20030;-80
2021/03/10 05:11:08;;;;;;;81.73;40.87;;;;;;;3.51;94.78;101731.47;5006622;28;20030;-77
2021/03/10 05:13:33;;;;;;;74.57;39.17;;;;;;;3.48;94.73;101728.72;4996125;28;20277;-78
2021/03/10 05:15:59;;;;;;;81.63;40.58;;;;;;;3.55;94.64;101727.47;5002719;28;20490;-78
2021/03/10 05:18:24;;;;;;;77.80;39.43;;;;;;;3.55;94.54;101733.44;4997994;28;20038;-79
2021/03/10 05:20:49;;;;;;;81.50;38.70;;;;;;;3.57;94.48;101729.34;5003699;28;20289;-77
2021/03/10 05:23:15;;;;;;;86.20;39.47;;;;;;;3.58;94.34;101723.50;5006148;28;20431;-78
2021/03/10 05:25:40;;;;;;;80.73;38.57;;;;;;;3.55;94.50;101730.91;4985785;28;20032;-78
2021/03/10 05:28:05;;;;;;;75.53;40.38;;;;;;;3.53;94.41;101732.44;5007969;28;20714;-78
2021/03/10 05:30:30;;;;;;;75.83;39.07;;;;;;;3.48;94.45;101731.28;5001493;28;20113;-78
2021/03/10 05:32:56;;;;;;;75.30;38.65;;;;;;;3.44;94.42;101737.81;5003080;28;20278;-79
2021/03/10 05:35:21;;;;;;;78.93;38.77;;;;;;;3.47;94.71;101734.59;4985293;28;20045;-78
2021/03/10 05:37:46;;;;;;;69.13;37.08;;;;;;;3.52;94.55;101730.69;4984727;28;20284;-79
2021/03/10 05:40:12;;;;;;;79.53;37.47;;;;;;;3.49;94.36;101739.78;5007287;28;20076;-79
2021/03/10 05:42:41;;;;;;;73.40;38.55;;;;;;;3.50;94.62;101737.34;5008714;28;20320;-77
2021/03/10 05:45:09;;;;;;;70.87;38.50;;;;;;;3.47;94.24;101734.59;4986329;28;20049;-79
2021/03/10 05:47:34;;;;;;;67.03;35.43;;;;;;;3.51;94.60;101734.00;4985495;28;20022;-78
2021/03/10 05:49:59;;;;;;;80.53;38.00;;;;;;;3.53;94.86;101729.91;5002708;28;20022;-79
2021/03/10 05:52:25;;;;;;;72.30;37.72;;;;;;;3.55;94.32;101722.38;4986825;28;20526;-79
2021/03/10 05:54:51;;;;;;;74.13;37.40;;;;;;;3.54;94.21;101724.06;4986392;28;20083;-79
2021/03/10 05:57:20;;;;;;;74.60;37.90;;;;;;;3.55;94.14;101718.19;4985120;28;20018;-77
2021/03/10 05:59:45;;;;;;;66.93;36.20;;;;;;;3.62;94.27;101715.31;4981789;28;20053;-77
2021/03/10 06:02:11;;;;;;;76.70;38.63;;;;;;;3.53;94.38;101721.41;5008932;28;20025;-80
2021/03/10 06:04:40;;;;;;;68.25;37.20;;;;;;;3.57;94.23;101718.28;4989821;28;20276;-80
2021/03/10 06:07:19;;;;;;;64.73;35.50;;;;;;;3.61;94.03;101716.09;4991766;28;20022;-77
2021/03/10 06:10:03;;;;;;;70.87;36.67;;;;;;;3.63;94.03;101714.53;5008999;28;20064;-78
2021/03/10 06:12:45;;;;;;;73.23;36.30;;;;;;;3.58;93.91;101705.72;4980523;28;20027;-79
2021/03/10 06:15:13;;;;;;;72.50;38.60;;;;;;;3.55;94.19;101708.03;4979970;28;20396;-77
2021/03/10 06:17:47;;;;;;;77.67;38.63;;;;;;;3.51;94.07;101702.66;4988691;28;20022;-78
2021/03/10 06:20:26;;;;;;;70.27;36.70;;;;;;;3.57;94.27;101701.38;5002657;28;20050;-79
2021/03/10 06:22:55;;;;;;;74.97;37.30;;;;;;;3.61;94.01;101705.91;5005014;28;20054;-78
2021/03/10 06:25:22;;;;;;;77.03;37.93;;;;;;;3.59;93.82;101709.13;5013545;28;20093;-79
2021/03/10 06:27:56;;;;;;;69.73;36.10;;;;;;;3.58;94.26;101705.72;5006701;28;20157;-78
2021/03/10 06:30:31;;;;;;;72.97;36.47;;;;;;;3.58;94.19;101698.09;5008653;28;20026;-78
2021/03/10 06:32:57;;;;;;;76.60;38.80;;;;;;;3.58;94.55;101695.56;5001232;28;20026;-79
2021/03/10 06:35:26;;;;;;;69.55;38.42;;;;;;;3.54;94.54;101696.09;4989853;28;20088;-79
2021/03/10 06:37:52;;;;;;;79.00;37.60;;;;;;;3.62;94.73;101692.44;5001130;28;20115;-77
2021/03/10 06:40:18;;;;;;;79.85;38.17;;;;;;;3.61;94.68;101690.69;5007387;28;20446;-79
2021/03/10 06:42:52;;;;;;;;;;;;;;;3.67;94.35;101693.59;4984252;28;20022;-76
2021/03/10 06:45:31;;;;;;;66.43;36.00;;;;;;;3.65;94.33;101704.47;5006160;28;20358;-77
2021/03/10 06:47:56;;;;;;;73.40;37.43;;;;;;;3.65;94.31;101695.16;4988506;28;20066;-76
2021/03/10 06:50:33;;;;;;;81.13;39.15;;;;;;;3.66;94.66;101699.47;5010082;28;20479;-77
2021/03/10 06:52:58;;;;;;;81.55;37.97;;;;;;;3.72;94.28;101691.34;4981796;28;20101;-77
2021/03/10 06:55:24;;;;;;;74.47;37.78;;;;;;;3.73;94.56;101693.13;5004725;28;20509;-78
2021/03/10 06:57:49;;;;;;;80.00;40.35;;;;;;;3.82;94.40;101687.75;5005014;28;20041;-76
2021/03/10 07:00:23;;;;;;;70.57;35.67;;;;;;;3.88;94.25;101698.28;5003896;28;20072;-77
2021/03/10 07:02:49;;;;;;;66.37;35.50;;;;;;;3.94;93.70;101698.72;5004636;28;20480;-78
2021/03/10 07:05:14;;;;;;;73.82;37.08;;;;;;;3.92;93.69;101701.16;4988748;28;20026;-77
2021/03/10 07:07:41;;;;;;;74.72;38.22;;;;;;;3.98;93.53;101704.09;4987415;28;20025;-76
2021/03/10 07:10:07;;;;;;;70.77;36.40;;;;;;;3.99;93.40;101703.31;4993989;28;20022;-78
2021/03/10 07:12:33;;;;;;;72.50;38.22;;;;;;;4.04;93.45;101703.59;4983194;28;20033;-76
2021/03/10 07:15:01;;;;;;;74.60;38.47;;;;;;;4.05;93.50;101690.97;4981993;28;20030;-78
2021/03/10 07:17:27;;;;;;;79.03;40.07;;;;;;;4.03;93.50;101699.28;4996287;28;20022;-77
2021/03/10 07:19:52;;;;;;;78.78;38.17;;;;;;;4.06;93.44;101694.41;4998338;28;20081;-77
2021/03/10 07:22:21;;;;;;;83.85;40.08;;;;;;;4.04;93.70;101695.97;5012531;28;20392;-78
2021/03/10 07:24:59;;;;;;;81.83;39.97;;;;;;;4.12;93.72;101697.31;4985761;28;20029;-77
2021/03/10 07:27:25;;;;;;;75.83;39.30;;;;;;;4.11;93.37;101694.69;4982897;28;20038;-79
2021/03/10 07:29:58;;;;;;;;;;;;;;;4.19;93.07;101691.81;5005404;28;20026;-78
2021/03/10 07:32:25;;;;;;;74.20;37.40;;;;;;;4.25;92.93;101702.41;5002344;28;19914;-76
2021/03/10 07:35:09;;;;;;;79.33;38.00;;;;;;;4.29;92.77;101695.84;5005559;28;20101;-76
2021/03/10 07:37:36;;;;;;;76.47;37.10;;;;;;;4.31;93.12;101695.16;4980975;28;20031;-77
2021/03/10 07:40:13;;;;;;;75.20;38.27;;;;;;;4.29;92.94;101699.28;4989579;28;20038;-77
2021/03/10 07:42:56;;;;;;;74.03;37.23;;;;;;;4.36;93.12;101698.84;5002223;28;20072;-77
2021/03/10 07:45:23;;;;;;;74.40;38.60;;;;;;;4.40;93.00;101694.84;5006516;28;20141;-78
2021/03/10 07:47:54;;;;;;;75.93;38.07;;;;;;;4.43;92.75;101692.47;4982206;28;20022;-77
2021/03/10 07:50:20;;;;;;;76.03;37.87;;;;;;;4.48;92.92;101690.22;4996072;28;20077;-77
2021/03/10 07:52:53;;;;;;;83.10;37.85;;;;;;;4.58;92.18;101697.66;4986222;28;20084;-77
2021/03/10 07:55:19;;;;;;;70.87;35.80;;;;;;;4.60;92.46;101691.00;4986612;28;20394;-76
2021/03/10 07:57:54;;;;;;;;;;;;;;;4.64;92.27;101687.84;4981667;28;20121;-77
2021/03/10 08:00:31;;;;;;;71.27;35.33;;;;;;;4.66;92.19;101688.81;4998786;28;19925;-78
2021/03/10 08:02:57;;;;;;;71.30;37.03;;;;;;;4.78;91.89;101681.91;4983303;28;20026;-77
2021/03/10 08:05:24;;;;;;;71.50;36.23;;;;;;;4.83;91.86;101682.19;4994952;28;20527;-76
2021/03/10 08:08:04;;;;;;;67.57;34.70;;;;;;;4.79;91.51;101685.34;4997690;28;20313;-77
2021/03/10 08:10:30;;;;;;;66.30;35.30;;;;;;;4.81;91.41;101689.72;4990365;28;20026;-78
2021/03/10 08:12:55;;;;;;;71.63;34.38;;;;;;;4.81;91.37;101682.09;4982999;28;20396;-77
2021/03/10 08:15:22;;;;;;;69.20;36.55;;;;;;;4.84;91.47;101687.34;4984652;28;20065;-76
2021/03/10 08:17:47;;;;;;;67.83;34.77;;;;;;;4.84;91.33;101672.09;4993745;28;20065;-77
2021/03/10 08:20:13;;;;;;;68.75;35.65;;;;;;;4.93;91.02;101672.66;5011141;28;20018;-77
2021/03/10 08:22:39;;;;;;;69.18;34.22;;;;;;;4.95;91.26;101673.63;4990832;28;20030;-75
2021/03/10 08:25:05;;;;;;;67.97;35.55;;;;;;;5.03;90.67;101668.97;4983181;28;20026;-77
2021/03/10 08:27:31;;;;;;;73.63;33.80;;;;;;;4.98;90.69;101670.38;4994463;28;20038;-77
2021/03/10 08:29:57;;;;;;;67.70;35.40;;;;;;;5.00;90.44;101674.78;4982283;28;20044;-77
2021/03/10 08:32:30;;;;;;;75.77;35.53;;;;;;;4.97;90.90;101666.94;4996303;28;20026;-77
2021/03/10 08:35:00;;;;;;;65.93;35.10;;;;;;;5.07;90.71;101664.94;4997224;28;20118;-76
2021/03/10 08:37:25;;;;;;;69.60;33.80;;;;;;;5.14;90.02;101669.59;5001733;28;20502;-77
2021/03/10 08:39:50;;;;;;;67.30;31.67;;;;;;;5.09;90.22;101656.59;5008232;28;20026;-78
2021/03/10 08:42:20;;;;;;;66.38;34.90;;;;;;;5.11;90.46;101659.22;5002281;28;20112;-78
2021/03/10 08:44:48;;;;;;;66.50;34.03;;;;;;;5.17;90.21;101657.91;4995692;28;20435;-77
2021/03/10 08:47:16;;;;;;;65.53;33.77;;;;;;;5.20;90.35;101649.56;4982682;28;20394;-77
2021/03/10 08:49:50;;;;;;;71.20;34.87;;;;;;;5.27;89.53;101651.72;4996672;28;20021;-76
2021/03/10 08:52:17;;;;;;;68.70;33.47;;;;;;;5.31;89.32;101651.09;5001659;28;20028;-77
2021/03/10 08:54:49;;;;;;;70.73;32.70;;;;;;;5.37;89.34;101645.47;4980041;28;20029;-76
2021/03/10 08:57:19;;;;;;;67.00;33.27;;;;;;;5.36;89.14;101644.59;4999665;28;20022;-75
2021/03/10 08:59:44;;;;;;;61.27;31.33;;;;;;;5.46;88.94;101644.31;4983753;28;20121;-75
2021/03/10 09:02:11;;;;;;;58.00;30.00;;;;;;;5.46;87.90;101635.78;5006990;28;20049;-76
2021/03/10 09:04:37;;;;;;;56.83;30.97;;;;;;;5.41;88.44;101630.44;4988969;28;20065;-76
2021/03/10 09:07:03;;;;;;;62.63;30.90;;;;;;;5.46;88.34;101629.03;4997461;28;20030;-76
2021/03/10 09:09:32;;;;;;;57.08;28.52;;;;;;;5.52;87.94;101626.81;4984039;28;20427;-76
2021/03/10 09:11:58;;;;;;;54.30;30.30;;;;;;;5.58;87.17;101617.00;4995423;28;20065;-76
2021/03/10 09:14:24;;;;;;;49.83;27.45;;;;;;;5.65;87.13;101612.22;5010495;28;20062;-76
2021/03/10 09:16:53;;;;;;;50.95;28.48;;;;;;;5.68;86.93;101618.38;4986893;28;20113;-76
2021/03/10 09:19:51;;;;;;;45.47;25.17;;;;;;;5.80;86.00;101608.84;4980178;28;20034;-75
2021/03/10 09:22:20;;;;;;;;;;;;;;;5.91;86.20;101607.81;4971742;28;20092;-75
2021/03/10 09:24:53;;;;;;;48.27;26.27;;;;;;;6.02;85.09;101612.59;4984673;28;19969;-77
2021/03/10 09:27:29;;;;;;;48.50;27.73;;;;;;;6.16;84.72;101612.53;4983063;28;20018;-77
2021/03/10 09:29:57;;;;;;;54.17;27.70;;;;;;;6.12;84.41;101608.06;4993104;28;20049;-77
2021/03/10 09:32:23;;;;;;;53.17;26.83;;;;;;;6.22;84.22;101606.91;4983949;28;20096;-76
2021/03/10 09:34:49;;;;;;;;;;;;;;;6.20;84.64;101611.94;5003405;28;20053;-75
2021/03/10 09:37:15;;;;;;;43.90;25.70;;;;;;;6.29;83.67;101620.88;4996434;28;19913;-78
2021/03/10 09:39:46;;;;;;;45.67;24.48;;;;;;;6.29;83.19;101608.13;5000460;28;20422;-76
2021/03/10 09:42:11;;;;;;;45.93;25.50;;;;;;;6.29;83.32;101610.66;4978113;28;20120;-77
2021/03/10 09:44:49;;;;;;;45.53;25.90;;;;;;;6.39;83.88;101602.69;4974865;28;20461;-76
2021/03/10 09:47:17;;;;;;;47.53;25.97;;;;;;;6.51;82.93;101598.25;5006494;28;20034;-75
2021/03/10 09:49:50;;;;;;;42.30;23.73;;;;;;;6.66;82.91;101601.56;4976393;28;20026;-76
2021/03/10 09:52:15;;;;;;;44.60;24.40;;;;;;;6.74;82.37;101596.84;4988682;28;20084;-78
2021/03/10 09:54:49;;;;;;;40.67;21.13;;;;;;;6.82;80.59;101593.88;4980908;28;20446;-76
2021/03/10 09:57:27;;;;;;;39.30;23.17;;;;;;;6.80;80.80;101592.06;4989493;28;20291;-76
2021/03/10 09:59:57;;;;;;;45.10;22.57;;;;;;;6.91;80.02;101590.06;4997209;28;20120;-75
2021/03/10 10:02:24;;;;;;;38.13;21.57;;;;;;;6.91;80.02;101584.97;5006996;28;20112;-76
2021/03/10 10:04:57;;;;;;;36.03;21.20;;;;;;;6.99;79.96;101586.22;5008956;28;20040;-75
2021/03/10 10:07:22;;;;;;;36.47;21.33;;;;;;;7.12;79.80;101579.22;5004912;28;20021;-75
2021/03/10 10:09:48;;;;;;;33.92;21.08;;;;;;;7.22;79.17;101575.47;5005510;28;20026;-76
2021/03/10 10:12:13;;;;;;;36.07;19.17;;;;;;;7.29;77.80;101577.50;5005441;28;20024;-76
2021/03/10 10:14:38;;;;;;;33.83;20.33;;;;;;;7.28;77.97;101578.31;4988042;28;20036;-76
2021/03/10 10:17:05;;;;;;;33.20;19.10;;;;;;;7.20;77.89;101574.50;5008388;28;20038;-75
2021/03/10 10:19:30;;;;;;;35.77;19.73;;;;;;;7.25;77.97;101573.03;4996903;28;20293;-77
2021/03/10 10:21:56;;;;;;;36.53;19.20;;;;;;;7.29;77.73;101569.84;4989799;28;20038;-75
2021/03/10 10:24:21;;;;;;;32.20;18.23;;;;;;;7.23;77.26;101566.09;4980605;28;20018;-76
2021/03/10 10:26:48;;;;;;;31.85;18.40;;;;;;;7.27;77.32;101566.31;4995090;28;20033;-77
2021/03/10 10:29:13;;;;;;;33.00;18.03;;;;;;;7.42;77.03;101556.81;4998298;28;20022;-77
2021/03/10 10:31:38;;;;;;;31.13;17.73;;;;;;;7.49;75.49;101553.78;4991451;28;20052;-77
2021/03/10 10:34:04;;;;;;;30.27;17.57;;;;;;;7.58;75.69;101552.47;4996438;28;20029;-76
2021/03/10 10:36:29;;;;;;;27.63;16.13;;;;;;;7.53;75.02;101542.03;5010179;28;20793;-76
2021/03/10 10:38:54;;;;;;;31.98;17.63;;;;;;;7.63;75.14;101543.31;4992215;28;20026;-76
2021/03/10 10:41:20;;;;;;;28.55;16.27;;;;;;;7.63;74.40;101533.09;4980668;28;20112;-75
2021/03/10 10:43:45;;;;;;;30.50;16.17;;;;;;;7.66;74.90;101529.00;5013536;28;20050;-76
2021/03/10 10:46:10;;;;;;;24.88;15.80;;;;;;;7.83;74.64;101527.22;5002605;28;20045;-77
2021/03/10 10:48:36;;;;;;;28.95;16.63;;;;;;;7.89;73.03;101524.94;5002940;28;20073;-77
2021/03/10 10:51:01;;;;;;;28.47;15.33;;;;;;;7.95;72.18;101526.88;4995078;28;20091;-76
2021/03/10 10:53:26;;;;;;;32.78;17.17;;;;;;;8.16;71.84;101519.31;4983881;28;20130;-76
2021/03/10 10:55:51;;;;;;;25.57;16.27;;;;;;;8.36;71.78;101518.50;4999513;28;20109;-77
2021/03/10 10:58:17;;;;;;;32.90;17.25;;;;;;;8.34;70.40;101508.19;5002753;28;20029;-76
2021/03/10 11:00:42;;;;;;;27.60;16.52;;;;;;;8.53;71.42;101504.75;5002618;28;20049;-78
2021/03/10 11:03:08;;;;;;;30.52;16.27;;;;;;;8.63;71.36;101509.44;4991412;28;20479;-77
2021/03/10 11:05:33;;;;;;;26.85;14.98;;;;;;;8.69;69.27;101504.56;4976048;28;20030;-76
2021/03/10 11:07:59;;;;;;;28.13;16.27;;;;;;;8.78;69.38;101510.88;4977596;28;20017;-76
2021/03/10 11:10:24;;;;;;;27.42;16.17;;;;;;;8.76;68.52;101492.00;5000808;28;20049;-76
2021/03/10 11:12:50;;;;;;;29.45;16.73;;;;;;;8.81;68.51;101490.53;4998781;28;20030;-76
2021/03/10 11:15:15;;;;;;;29.57;16.13;;;;;;;8.88;68.04;101492.53;4994931;28;20503;-76
2021/03/10 11:17:40;;;;;;;28.52;16.65;;;;;;;8.93;68.27;101491.91;5002302;28;20026;-76
2021/03/10 11:20:08;;;;;;;28.50;17.55;;;;;;;9.04;68.11;101489.75;5008201;28;20442;-75
2021/03/10 11:22:33;;;;;;;29.57;16.67;;;;;;;9.09;67.32;101490.81;5003711;28;20128;-76